Time;durP1;ratioP1;P1;durP2;ratioP2;P2;SDS_P1;SDS_P2;PMS_P1;PMS_P2;Temp;Humidity;BMP_temperature;BMP_pressure;BME280_temperature;BME280_humidity;BME280_pressure;Samples;Min_cycle;Max_cycle;Signal;HPM_P1;HPM_P2
2022/03/18 00:00:34;;;;;;;;;;;;;;;16.69;59.04;100608.34;2091316;28;20027;-47
2022/03/18 00:01:34;;;;;;;;;;;;;;;16.68;59.08;100606.63;2091452;28;19924;-45
2022/03/18 00:02:35;;;;;;;;;;;;;;;16.69;59.25;100607.50;2092529;28;19925;-47
2022/03/18 00:03:35;;;;;;;;;;;;;;;16.68;59.01;100600.28;2089177;28;19935;-50
2022/03/18 00:04:36;;;;;;;;;;;;;;;16.68;58.80;100612.06;2092162;28;20044;-46
2022/03/18 00:05:36;;;;;;;;;;;;;;;16.67;59.08;100596.72;2097984;28;19924;-47
2022/03/18 00:06:36;;;;;;;;;;;;;;;16.68;59.06;100606.63;2088577;28;19932;-46
2022/03/18 00:07:38;;;;;;;;;;;;;;;16.69;58.99;100607.50;2082881;28;20858;-46
2022/03/18 00:08:39;;;;;;;;;;;;;;;16.67;59.01;100607.59;2086510;28;19924;-46
2022/03/18 00:09:41;;;;;;;;;;;;;;;16.68;58.98;100606.63;2089926;28;20347;-46
2022/03/18 00:10:41;;;;;;;;;;;;;;;16.68;59.14;100601.19;2092771;28;19924;-46
2022/03/18 00:11:41;;;;;;;;;;;;;;;16.68;59.16;100609.34;2089192;28;20374;-47
2022/03/18 00:12:42;;;;;;;;;;;;;;;16.67;58.96;100604.88;2090226;28;19920;-47
2022/03/18 00:13:42;;;;;;;;;;;;;;;16.68;58.96;100612.06;2089813;28;19921;-46
2022/03/18 00:14:43;;;;;;;;;;;;;;;16.66;59.13;100605.03;2090867;28;20233;-47
2022/03/18 00:15:44;;;;;;;;;;;;;;;16.66;59.34;100614.03;2086927;28;19947;-45
2022/03/18 00:16:44;;;;;;;;;;;;;;;16.67;58.94;100615.75;2088182;28;19924;-45
2022/03/18 00:17:45;;;;;;;;;;;;;;;16.67;59.02;100613.03;2084872;28;20415;-46
2022/03/18 00:18:45;;;;;;;;;;;;;;;16.65;59.12;100606.84;2093079;28;19947;-48
2022/03/18 00:19:45;;;;;;;;;;;;;;;16.65;59.18;100612.28;2092928;28;19977;-47
2022/03/18 00:20:47;;;;;;;;;;;;;;;16.67;59.32;100618.50;2087512;28;20215;-47
2022/03/18 00:21:52;;;;;;;;;;;;;;;16.65;59.19;100612.28;2086846;28;19923;-47
2022/03/18 00:22:52;;;;;;;;;;;;;;;16.66;59.11;100618.63;2093042;28;19938;-46
2022/03/18 00:23:52;;;;;;;;;;;;;;;16.67;59.12;100614.91;2091686;28;19927;-46
2022/03/18 00:24:53;;;;;;;;;;;;;;;16.67;59.31;100610.31;2091377;28;19924;-46
2022/03/18 00:25:53;;;;;;;;;;;;;;;16.65;59.04;100606.84;2083946;28;19951;-48
2022/03/18 00:26:54;;;;;;;;;;;;;;;16.66;59.13;100605.88;2084761;28;20007;-46
2022/03/18 00:27:54;;;;;;;;;;;;;;;16.66;58.89;100605.88;2092494;28;19918;-46
2022/03/18 00:28:54;;;;;;;;;;;;;;;16.65;59.08;100612.28;2092532;28;19907;-46
2022/03/18 00:29:56;;;;;;;;;;;;;;;16.67;58.91;100604.00;2091573;28;19930;-47
2022/03/18 00:30:57;;;;;;;;;;;;;;;16.66;59.08;100600.44;2090995;28;20028;-47
2022/03/18 00:31:57;;;;;;;;;;;;;;;16.66;59.13;100608.59;2086689;28;19997;-47
2022/03/18 00:32:58;;;;;;;;;;;;;;;16.67;59.05;100610.31;2093321;28;19920;-46
2022/03/18 00:33:58;;;;;;;;;;;;;;;16.67;59.11;100604.00;2092526;28;19920;-48
2022/03/18 00:34:59;;;;;;;;;;;;;;;16.66;58.81;100602.28;2090142;28;20265;-48
2022/03/18 00:35:59;;;;;;;;;;;;;;;16.68;58.99;100606.63;2090030;28;19999;-49
2022/03/18 00:36:59;;;;;;;;;;;;;;;16.68;59.19;100601.19;2087570;28;19947;-47
2022/03/18 00:38:02;;;;;;;;;;;;;;;16.66;59.01;100597.72;2088719;28;19922;-47
2022/03/18 00:39:03;;;;;;;;;;;;;;;16.69;59.14;100602.91;2090959;28;19928;-47
2022/03/18 00:40:04;;;;;;;;;;;;;;;16.70;59.09;100612.78;2093280;28;19920;-48
2022/03/18 00:41:05;;;;;;;;;;;;;;;16.70;58.77;100614.66;2090518;28;19920;-49
2022/03/18 00:42:06;;;;;;;;;;;;;;;16.70;58.97;100615.50;2090334;28;20900;-47
2022/03/18 00:43:06;;;;;;;;;;;;;;;16.70;59.04;100618.25;2086750;28;19971;-47
2022/03/18 00:44:07;;;;;;;;;;;;;;;16.70;58.99;100618.25;2090146;28;19923;-48
2022/03/18 00:45:07;;;;;;;;;;;;;;;16.72;58.94;100616.25;2090393;28;19920;-47
2022/03/18 00:46:08;;;;;;;;;;;;;;;16.71;58.92;100617.25;2099272;28;19972;-48
2022/03/18 00:52:26;;;;;;;;;;;;;;;16.71;58.85;100611.81;2094598;28;19920;-46
2022/03/18 00:53:26;;;;;;;;;;;;;;;16.71;59.01;100611.81;2091098;28;19941;-49
2022/03/18 00:54:27;;;;;;;;;;;;;;;16.72;58.80;100613.53;2092994;28;19916;-47
2022/03/18 00:55:27;;;;;;;;;;;;;;;16.71;58.98;100614.53;2089724;28;19926;-48
2022/03/18 00:56:27;;;;;;;;;;;;;;;16.71;58.92;100619.13;2092227;28;20214;-47
2022/03/18 00:57:28;;;;;;;;;;;;;;;16.70;58.99;100618.25;2086307;28;19922;-49
2022/03/18 00:58:28;;;;;;;;;;;;;;;16.71;58.97;100617.25;2090339;28;20319;-47
2022/03/18 00:59:29;;;;;;;;;;;;;;;16.70;58.73;100620.97;2089164;28;19971;-46
2022/03/18 01:00:29;;;;;;;;;;;;;;;16.71;59.07;100620.00;2092451;28;20043;-49
2022/03/18 01:01:30;;;;;;;;;;;;;;;16.70;59.00;100620.97;2087498;28;19917;-47
2022/03/18 01:02:31;;;;;;;;;;;;;;;16.72;58.94;100626.28;2089958;28;20104;-46
2022/03/18 01:03:31;;;;;;;;;;;;;;;16.71;58.78;100621.84;2086887;28;19924;-47
2022/03/18 01:04:31;;;;;;;;;;;;;;;16.71;59.13;100622.72;2089953;28;20167;-48
2022/03/18 01:05:32;;;;;;;;;;;;;;;16.71;58.72;100617.25;2089317;28;19978;-47
2022/03/18 01:06:32;;;;;;;;;;;;;;;16.72;58.84;100623.56;2089967;28;19920;-49
2022/03/18 01:07:32;;;;;;;;;;;;;;;16.71;59.02;100616.41;2087057;28;19921;-47
2022/03/18 01:08:33;;;;;;;;;;;;;;;16.71;59.01;100620.00;2088727;28;19914;-47
2022/03/18 01:09:33;;;;;;;;;;;;;;;16.72;58.95;100619.00;2089244;28;19924;-47
2022/03/18 01:10:34;;;;;;;;;;;;;;;16.72;58.85;100621.72;2090383;28;20558;-46
2022/03/18 01:11:34;;;;;;;;;;;;;;;16.74;58.84;100615.28;2092139;28;19924;-48
2022/03/18 01:12:37;;;;;;;;;;;;;;;16.74;58.71;100620.75;2084041;28;21217;-47
2022/03/18 01:13:37;;;;;;;;;;;;;;;16.74;58.85;100615.28;2085552;28;19920;-47
2022/03/18 01:14:37;;;;;;;;;;;;;;;16.74;58.71;100615.28;2096490;28;20008;-46
2022/03/18 01:15:38;;;;;;;;;;;;;;;16.72;58.77;100613.53;2088786;28;20124;-46
2022/03/18 01:16:38;;;;;;;;;;;;;;;16.72;59.10;100619.00;2086204;28;19920;-46
2022/03/18 01:17:38;;;;;;;;;;;;;;;16.72;58.92;100618.13;2081883;28;19917;-47
2022/03/18 01:18:39;;;;;;;;;;;;;;;16.72;58.94;100624.44;2092437;28;20424;-47
2022/03/18 01:19:40;;;;;;;;;;;;;;;16.71;58.84;100617.25;2087037;28;19952;-49
2022/03/18 01:20:40;;;;;;;;;;;;;;;16.71;58.77;100620.00;2094409;28;20069;-47
2022/03/18 01:21:43;;;;;;;;;;;;;;;16.71;58.95;100617.25;2100562;28;20314;-47
2022/03/18 01:22:43;;;;;;;;;;;;;;;16.70;58.69;100614.66;2090687;28;19974;-46
2022/03/18 01:23:43;;;;;;;;;;;;;;;16.69;58.81;100616.50;2089081;28;20058;-47
2022/03/18 01:24:44;;;;;;;;;;;;;;;16.69;58.91;100611.06;2086097;28;19959;-46
2022/03/18 01:25:44;;;;;;;;;;;;;;;16.69;58.90;100612.94;2089201;28;19920;-51
2022/03/18 01:26:44;;;;;;;;;;;;;;;16.69;58.96;100613.78;2098800;28;19991;-47
2022/03/18 01:27:45;;;;;;;;;;;;;;;16.69;59.04;100613.78;2096307;28;19916;-47
2022/03/18 01:28:45;;;;;;;;;;;;;;;16.70;59.05;100620.09;2089579;28;19912;-47
2022/03/18 01:29:45;;;;;;;;;;;;;;;16.69;59.23;100619.25;2094265;28;20337;-48
2022/03/18 01:30:45;;;;;;;;;;;;;;;16.68;58.96;100609.34;2091108;28;20139;-47
2022/03/18 01:31:48;;;;;;;;;;;;;;;16.70;59.00;100620.97;2093414;28;19942;-46
2022/03/18 01:32:49;;;;;;;;;;;;;;;16.70;59.08;100618.25;2088127;28;19921;-46
2022/03/18 01:33:49;;;;;;;;;;;;;;;16.70;59.04;100618.25;2089371;28;20631;-46
2022/03/18 01:34:50;;;;;;;;;;;;;;;16.71;59.10;100613.69;2092043;28;20196;-47
2022/03/18 01:35:50;;;;;;;;;;;;;;;16.72;59.13;100612.69;2090742;28;20315;-49
2022/03/18 01:36:51;;;;;;;;;;;;;;;16.71;58.89;100610.97;2085458;28;19927;-48
2022/03/18 01:37:51;;;;;;;;;;;;;;;16.72;58.97;100624.44;2086737;28;19916;-47
2022/03/18 01:38:52;;;;;;;;;;;;;;;16.71;58.96;100616.41;2092347;28;20749;-46
2022/03/18 01:39:52;;;;;;;;;;;;;;;16.72;58.80;100613.53;2090807;28;20354;-47
2022/03/18 01:40:53;;;;;;;;;;;;;;;16.72;59.04;100616.25;2087477;28;19974;-50
2022/03/18 01:41:54;;;;;;;;;;;;;;;16.72;58.75;100612.69;2086461;28;19989;-47
2022/03/18 01:42:54;;;;;;;;;;;;;;;16.72;58.83;100616.25;2089414;28;20444;-48
2022/03/18 01:43:54;;;;;;;;;;;;;;;16.74;58.93;100610.72;2100620;28;19920;-50
2022/03/18 01:44:54;;;;;;;;;;;;;;;16.74;59.03;100616.16;2086861;28;20064;-47
2022/03/18 01:45:55;;;;;;;;;;;;;;;16.75;58.85;100617.00;2098975;28;20305;-48
2022/03/18 01:46:55;;;;;;;;;;;;;;;16.74;58.83;100610.72;2090855;28;19923;-47
2022/03/18 01:47:55;;;;;;;;;;;;;;;16.75;58.93;100606.97;2090198;28;19962;-46
2022/03/18 01:48:56;;;;;;;;;;;;;;;16.76;58.81;100607.88;2090973;28;20531;-46
2022/03/18 01:49:58;;;;;;;;;;;;;;;16.76;58.86;100602.44;2090597;28;19916;-47
2022/03/18 01:50:58;;;;;;;;;;;;;;;16.76;58.90;100607.88;2091100;28;19942;-47
2022/03/18 01:51:58;;;;;;;;;;;;;;;16.76;58.94;100602.44;2091930;28;19908;-48
2022/03/18 01:52:59;;;;;;;;;;;;;;;16.76;58.73;100608.75;2089689;28;20338;-47
2022/03/18 01:55:20;;;;;;;;;;;;;;;16.77;58.71;100598.72;2092319;28;20164;-47
2022/03/18 01:56:20;;;;;;;;;;;;;;;16.77;58.51;100598.72;2092083;28;19917;-48
2022/03/18 01:57:22;;;;;;;;;;;;;;;16.78;58.63;100608.59;2088431;28;20565;-47
2022/03/18 01:58:23;;;;;;;;;;;;;;;16.76;58.77;100607.88;2088329;28;19916;-46
2022/03/18 01:59:23;;;;;;;;;;;;;;;16.77;58.85;100604.16;2090877;28;20441;-47
2022/03/18 02:00:24;;;;;;;;;;;;;;;16.77;58.89;100609.59;2092165;28;20386;-48
2022/03/18 02:01:25;;;;;;;;;;;;;;;16.76;58.53;100599.72;2081797;28;20362;-46
2022/03/18 02:02:25;;;;;;;;;;;;;;;16.75;58.64;100606.13;2082897;28;19931;-44
2022/03/18 02:03:25;;;;;;;;;;;;;;;16.76;58.97;100602.44;2093176;28;19946;-44
2022/03/18 02:04:26;;;;;;;;;;;;;;;16.74;58.90;100599.81;2088976;28;20294;-45
2022/03/18 02:05:26;;;;;;;;;;;;;;;16.75;58.73;100600.69;2089533;28;19924;-45
2022/03/18 02:06:26;;;;;;;;;;;;;;;16.74;58.85;100609.84;2088385;28;19920;-45
2022/03/18 02:07:27;;;;;;;;;;;;;;;16.74;58.82;100601.69;2087178;28;19920;-45
2022/03/18 02:08:28;;;;;;;;;;;;;;;16.73;58.73;100598.06;2090778;28;19963;-46
2022/03/18 02:09:30;;;;;;;;;;;;;;;16.74;58.96;100598.97;2093912;28;19972;-46
2022/03/18 02:10:30;;;;;;;;;;;;;;;16.74;58.87;100593.50;2089628;28;19916;-47
2022/03/18 02:11:30;;;;;;;;;;;;;;;16.73;58.69;100595.34;2090245;28;19934;-46
2022/03/18 02:12:31;;;;;;;;;;;;;;;16.72;58.88;100599.94;2086403;28;20952;-45
2022/03/18 02:13:31;;;;;;;;;;;;;;;16.72;58.96;100597.22;2091290;28;19912;-46
2022/03/18 02:14:36;;;;;;;;;;;;;;;16.72;58.80;100597.22;2090541;28;19911;-45
2022/03/18 02:15:36;;;;;;;;;;;;;;;16.72;58.85;100599.94;2094539;28;19924;-46
2022/03/18 02:16:39;;;;;;;;;;;;;;;16.72;58.85;100591.75;2094451;28;19920;-47
2022/03/18 02:17:39;;;;;;;;;;;;;;;16.71;58.85;100594.63;2095383;28;19924;-46
2022/03/18 02:18:39;;;;;;;;;;;;;;;16.72;58.86;100597.22;2092409;28;20853;-46
2022/03/18 02:19:41;;;;;;;;;;;;;;;16.70;58.98;100593.75;2092614;28;19912;-46
2022/03/18 02:20:41;;;;;;;;;;;;;;;16.72;58.68;100591.75;2090641;28;19934;-47
2022/03/18 02:21:42;;;;;;;;;;;;;;;16.72;58.91;100591.75;2092239;28;19912;-46
2022/03/18 02:22:43;;;;;;;;;;;;;;;16.72;58.85;100590.91;2093528;28;19912;-47
2022/03/18 02:23:43;;;;;;;;;;;;;;;16.72;58.87;100594.50;2095449;28;19924;-45
2022/03/18 02:24:45;;;;;;;;;;;;;;;16.71;58.94;100590.03;2092294;28;19920;-46
2022/03/18 02:25:46;;;;;;;;;;;;;;;16.71;58.90;100595.50;2091312;28;19927;-47
2022/03/18 02:26:47;;;;;;;;;;;;;;;16.72;58.92;100594.50;2085067;28;19938;-46
2022/03/18 02:28:01;;;;;;;;;;;;;;;16.73;58.85;100592.63;2090826;28;20005;-47
2022/03/18 02:29:01;;;;;;;;;;;;;;;16.74;58.77;100593.50;2090845;28;19999;-45
2022/03/18 02:30:02;;;;;;;;;;;;;;;16.75;58.86;100597.97;2091521;28;19939;-45
2022/03/18 02:31:03;;;;;;;;;;;;;;;16.75;58.86;100589.78;2084436;28;19924;-45
2022/03/18 02:32:07;;;;;;;;;;;;;;;16.76;58.82;100599.72;2099143;28;20243;-47
2022/03/18 02:33:10;;;;;;;;;;;;;;;16.75;58.74;100595.22;2091110;28;20015;-45
2022/03/18 02:34:10;;;;;;;;;;;;;;;16.76;58.71;100591.53;2090867;28;19916;-47
2022/03/18 02:35:10;;;;;;;;;;;;;;;16.74;58.82;100588.94;2089534;28;19927;-46
2022/03/18 02:36:10;;;;;;;;;;;;;;;16.76;58.75;100594.25;2085062;28;20350;-46
2022/03/18 02:37:11;;;;;;;;;;;;;;;16.77;58.82;100587.81;2088278;28;19926;-45
2022/03/18 02:38:12;;;;;;;;;;;;;;;16.76;58.68;100591.53;2095193;28;19920;-45
2022/03/18 02:39:13;;;;;;;;;;;;;;;16.76;58.70;100591.53;2096558;28;19920;-48
2022/03/18 02:40:15;;;;;;;;;;;;;;;16.77;58.53;100583.22;2091838;28;20366;-46
2022/03/18 02:41:15;;;;;;;;;;;;;;;16.77;58.84;100582.38;2091359;28;19966;-46
2022/03/18 02:42:16;;;;;;;;;;;;;;;16.77;58.60;100587.81;2084546;28;19920;-46
2022/03/18 02:43:16;;;;;;;;;;;;;;;16.77;58.70;100587.81;2090291;28;19999;-46
2022/03/18 02:44:16;;;;;;;;;;;;;;;16.77;58.65;100587.81;2090142;28;20511;-46
2022/03/18 02:45:17;;;;;;;;;;;;;;;16.77;58.63;100590.53;2089548;28;19964;-46
2022/03/18 02:46:17;;;;;;;;;;;;;;;16.77;58.58;100585.09;2096032;28;20353;-46
2022/03/18 02:47:17;;;;;;;;;;;;;;;16.77;58.67;100594.13;2091667;28;19920;-47
2022/03/18 02:48:18;;;;;;;;;;;;;;;16.77;58.51;100593.25;2094412;28;20305;-46
2022/03/18 02:49:21;;;;;;;;;;;;;;;16.76;58.66;100586.09;2095875;28;19919;-46
2022/03/18 02:50:22;;;;;;;;;;;;;;;16.77;58.55;100587.81;2086695;28;20326;-47
2022/03/18 02:51:22;;;;;;;;;;;;;;;16.76;58.63;100589.69;2081530;28;20007;-46
2022/03/18 02:52:23;;;;;;;;;;;;;;;16.75;58.74;100584.34;2074951;28;20467;-45
2022/03/18 02:53:23;;;;;;;;;;;;;;;16.77;58.48;100587.81;2086858;28;20064;-45
2022/03/18 02:54:23;;;;;;;;;;;;;;;16.77;58.40;100593.25;2094733;28;20004;-45
2022/03/18 02:55:23;;;;;;;;;;;;;;;16.76;58.63;100591.53;2086826;28;19920;-46
2022/03/18 02:56:24;;;;;;;;;;;;;;;16.77;58.75;100593.25;2088854;28;19940;-47
2022/03/18 02:57:24;;;;;;;;;;;;;;;16.77;58.60;100601.44;2095981;28;19931;-46
2022/03/18 02:58:25;;;;;;;;;;;;;;;16.77;58.55;100590.53;2090818;28;20009;-48
2022/03/18 02:59:26;;;;;;;;;;;;;;;16.76;58.48;100592.41;2087907;28;20011;-46
2022/03/18 03:00:26;;;;;;;;;;;;;;;16.77;58.70;100591.41;2085611;28;19920;-48
2022/03/18 03:01:27;;;;;;;;;;;;;;;16.78;58.69;100589.53;2082855;28;19920;-46
2022/03/18 03:02:27;;;;;;;;;;;;;;;16.79;58.60;100599.50;2078805;28;19920;-46
2022/03/18 03:03:28;;;;;;;;;;;;;;;16.78;58.62;100597.69;2087796;28;21049;-46
2022/03/18 03:04:29;;;;;;;;;;;;;;;16.77;58.68;100598.72;2094364;28;19920;-46
2022/03/18 03:08:07;;;;;;;;;;;;;;;16.77;58.66;100605.00;2086953;28;20007;-45
2022/03/18 03:09:07;;;;;;;;;;;;;;;16.78;58.83;100605.88;2088995;28;20399;-46
2022/03/18 03:10:08;;;;;;;;;;;;;;;16.77;58.60;100601.44;2097101;28;19958;-46
2022/03/18 03:11:08;;;;;;;;;;;;;;;16.78;58.77;100603.16;2088308;28;19912;-47
2022/03/18 03:12:08;;;;;;;;;;;;;;;16.76;58.55;100597.84;2090506;28;20464;-46
2022/03/18 03:13:10;;;;;;;;;;;;;;;16.77;58.62;100598.72;2087087;28;19920;-48
2022/03/18 03:14:11;;;;;;;;;;;;;;;16.77;58.50;100594.13;2089121;28;19920;-46
2022/03/18 03:15:11;;;;;;;;;;;;;;;16.78;58.67;100597.69;2088513;28;20667;-46
2022/03/18 03:16:12;;;;;;;;;;;;;;;16.78;58.53;100597.69;2091295;28;19999;-46
2022/03/18 03:17:12;;;;;;;;;;;;;;;16.76;58.58;100595.13;2084128;28;20335;-47
2022/03/18 03:18:12;;;;;;;;;;;;;;;16.76;58.66;100600.56;2081229;28;19990;-45
2022/03/18 03:19:14;;;;;;;;;;;;;;;16.75;58.58;100595.22;2078619;28;19921;-46
2022/03/18 03:20:15;;;;;;;;;;;;;;;16.76;58.74;100597.00;2092289;28;19969;-46
2022/03/18 03:21:15;;;;;;;;;;;;;;;16.75;58.78;100595.22;2088389;28;20226;-45
2022/03/18 03:22:15;;;;;;;;;;;;;;;16.75;58.59;100593.38;2091603;28;19916;-46
2022/03/18 03:23:16;;;;;;;;;;;;;;;16.76;58.68;100597.00;2089631;28;20672;-46
2022/03/18 03:24:16;;;;;;;;;;;;;;;16.75;58.72;100597.97;2097568;28;20401;-46
2022/03/18 03:25:16;;;;;;;;;;;;;;;16.75;58.59;100600.69;2085743;28;19942;-45
2022/03/18 03:26:16;;;;;;;;;;;;;;;16.75;58.60;100598.81;2092170;28;20246;-46
2022/03/18 03:27:17;;;;;;;;;;;;;;;16.75;58.78;100589.78;2096979;28;19996;-46
2022/03/18 03:28:18;;;;;;;;;;;;;;;16.76;58.84;100594.25;2090523;28;19920;-45
2022/03/18 03:29:18;;;;;;;;;;;;;;;16.76;58.81;100597.00;2087321;28;19924;-46
2022/03/18 03:30:19;;;;;;;;;;;;;;;16.76;58.65;100597.00;2098309;28;19919;-47
2022/03/18 03:31:19;;;;;;;;;;;;;;;16.76;58.72;100597.00;2086965;28;19921;-46
2022/03/18 03:32:20;;;;;;;;;;;;;;;16.77;58.70;100599.56;2094124;28;20350;-46
2022/03/18 03:33:20;;;;;;;;;;;;;;;16.75;58.79;100606.13;2091139;28;19920;-46
2022/03/18 03:34:20;;;;;;;;;;;;;;;16.78;58.73;100605.88;2084106;28;19920;-45
2022/03/18 03:35:21;;;;;;;;;;;;;;;16.78;58.75;100608.59;2094946;28;19979;-46
2022/03/18 03:36:23;;;;;;;;;;;;;;;16.78;58.60;100601.34;2091588;28;20141;-46
2022/03/18 03:37:24;;;;;;;;;;;;;;;16.78;58.81;100600.44;2097656;28;20022;-46
2022/03/18 03:38:25;;;;;;;;;;;;;;;16.79;58.43;100603.06;2083162;28;20319;-45
2022/03/18 03:39:25;;;;;;;;;;;;;;;16.79;58.61;100607.66;2085312;28;19985;-46
2022/03/18 03:40:26;;;;;;;;;;;;;;;16.80;58.55;100606.66;2084809;28;20002;-47
2022/03/18 03:41:26;;;;;;;;;;;;;;;16.80;58.66;100599.34;2089915;28;19967;-46
2022/03/18 03:42:26;;;;;;;;;;;;;;;16.79;58.85;100604.94;2092561;28;19924;-46
2022/03/18 03:43:27;;;;;;;;;;;;;;;16.80;58.57;100604.78;2091424;28;19928;-45
2022/03/18 03:44:27;;;;;;;;;;;;;;;16.79;58.63;100607.66;2090308;28;19958;-47
2022/03/18 03:45:27;;;;;;;;;;;;;;;16.80;58.54;100609.38;2096340;28;20339;-46
2022/03/18 03:46:28;;;;;;;;;;;;;;;16.81;58.51;100605.69;2088115;28;19923;-51
2022/03/18 03:47:29;;;;;;;;;;;;;;;16.81;58.51;100611.13;2089527;28;19980;-45
2022/03/18 03:48:29;;;;;;;;;;;;;;;16.82;58.49;100608.25;2095240;28;19916;-46
2022/03/18 03:49:29;;;;;;;;;;;;;;;16.82;58.45;100618.28;2100106;28;20321;-49
2022/03/18 03:50:30;;;;;;;;;;;;;;;16.82;58.67;100615.56;2088207;28;19966;-46
2022/03/18 03:51:30;;;;;;;;;;;;;;;16.81;58.59;100616.56;2089346;28;20017;-45
2022/03/18 03:52:32;;;;;;;;;;;;;;;16.81;58.48;100613.84;2093428;28;20288;-45
2022/03/18 03:53:32;;;;;;;;;;;;;;;16.82;58.65;100618.28;2077532;28;19927;-47
2022/03/18 03:54:33;;;;;;;;;;;;;;;16.80;58.60;100615.69;2085345;28;19916;-45
2022/03/18 03:55:38;;;;;;;;;;;;;;;16.82;58.30;100613.72;2099318;28;19927;-45
2022/03/18 03:56:38;;;;;;;;;;;;;;;16.82;58.39;100618.28;2091562;28;19916;-46
2022/03/18 03:57:39;;;;;;;;;;;;;;;16.80;58.62;100612.09;2092693;28;20181;-47
2022/03/18 03:58:39;;;;;;;;;;;;;;;16.80;58.46;100614.81;2100619;28;20047;-45
2022/03/18 03:59:39;;;;;;;;;;;;;;;16.80;58.78;100617.53;2088744;28;19921;-46
2022/03/18 04:00:40;;;;;;;;;;;;;;;16.79;58.67;100618.53;2101340;28;20195;-47
2022/03/18 04:01:41;;;;;;;;;;;;;;;16.80;58.40;100617.53;2085676;28;19927;-45
2022/03/18 04:02:43;;;;;;;;;;;;;;;16.78;58.69;100616.75;2096582;28;19916;-46
2022/03/18 04:03:45;;;;;;;;;;;;;;;16.78;58.66;100624.94;2101443;28;19977;-45
2022/03/18 04:04:46;;;;;;;;;;;;;;;16.78;58.77;100622.22;2093023;28;19931;-45
2022/03/18 04:05:46;;;;;;;;;;;;;;;16.78;58.67;100616.75;2100241;28;19995;-45
2022/03/18 04:06:47;;;;;;;;;;;;;;;16.77;58.40;100621.34;2098761;28;19989;-45
2022/03/18 04:07:47;;;;;;;;;;;;;;;16.79;58.55;100618.53;2089414;28;19916;-46
2022/03/18 04:08:48;;;;;;;;;;;;;;;16.77;58.58;100620.47;2101573;28;19962;-46
2022/03/18 04:09:49;;;;;;;;;;;;;;;16.77;58.66;100615.91;2082351;28;19924;-45
2022/03/18 04:10:49;;;;;;;;;;;;;;;16.77;58.65;100621.34;2086479;28;19916;-46
2022/03/18 04:11:50;;;;;;;;;;;;;;;16.77;58.54;100623.22;2092916;28;20095;-48
2022/03/18 04:12:50;;;;;;;;;;;;;;;16.77;58.73;100621.34;2090329;28;19928;-46
2022/03/18 04:13:50;;;;;;;;;;;;;;;16.75;58.58;100617.00;2098183;28;19919;-48
2022/03/18 04:14:54;;;;;;;;;;;;;;;16.77;58.81;100617.75;2089866;28;20199;-46
2022/03/18 04:15:54;;;;;;;;;;;;;;;16.74;58.78;100627.03;2086133;28;19924;-45
2022/03/18 04:16:54;;;;;;;;;;;;;;;16.77;58.63;100620.47;2101164;28;19919;-45
2022/03/18 04:17:54;;;;;;;;;;;;;;;16.75;58.51;100620.59;2090465;28;19924;-47
2022/03/18 04:18:55;;;;;;;;;;;;;;;16.76;58.82;100619.63;2092813;28;19920;-47
2022/03/18 04:19:55;;;;;;;;;;;;;;;16.77;58.64;100626.78;2091950;28;20850;-46
2022/03/18 04:20:55;;;;;;;;;;;;;;;16.77;58.88;100631.38;2092501;28;20043;-47
2022/03/18 04:21:55;;;;;;;;;;;;;;;16.77;58.59;100626.78;2093491;28;19919;-46
2022/03/18 04:22:56;;;;;;;;;;;;;;;16.77;58.50;100625.94;2090249;28;20166;-46
2022/03/18 04:23:56;;;;;;;;;;;;;;;16.77;58.78;100629.50;2093040;28;19928;-45
2022/03/18 04:24:57;;;;;;;;;;;;;;;16.79;58.67;100634.88;2092758;28;19926;-46
2022/03/18 04:25:57;;;;;;;;;;;;;;;16.78;58.66;100630.38;2093023;28;20114;-45
2022/03/18 04:26:58;;;;;;;;;;;;;;;16.79;58.60;100629.44;2091553;28;19920;-47
2022/03/18 04:27:59;;;;;;;;;;;;;;;16.80;58.66;100631.16;2092023;28;20054;-46
2022/03/18 04:28:59;;;;;;;;;;;;;;;16.79;58.73;100632.16;2091276;28;19920;-46
2022/03/18 04:29:59;;;;;;;;;;;;;;;16.79;58.79;100634.88;2093110;28;20012;-45
2022/03/18 04:30:59;;;;;;;;;;;;;;;16.80;58.55;100632.00;2091056;28;19963;-45
2022/03/18 04:32:00;;;;;;;;;;;;;;;16.81;58.67;100632.91;2094804;28;20297;-45
2022/03/18 04:33:01;;;;;;;;;;;;;;;16.81;58.58;100627.47;2090130;28;19917;-47
2022/03/18 04:34:01;;;;;;;;;;;;;;;16.81;58.68;100644.66;2087227;28;19984;-45
2022/03/18 04:35:02;;;;;;;;;;;;;;;16.81;58.74;100638.34;2088573;28;20569;-46
2022/03/18 04:36:02;;;;;;;;;;;;;;;16.81;58.46;100639.22;2097436;28;19911;-46
2022/03/18 04:37:03;;;;;;;;;;;;;;;16.82;58.54;100645.53;2088082;28;19921;-47
2022/03/18 04:38:03;;;;;;;;;;;;;;;16.81;58.49;100646.53;2090188;28;19924;-46
2022/03/18 04:39:04;;;;;;;;;;;;;;;16.81;58.55;100643.81;2090532;28;19942;-49
2022/03/18 04:40:05;;;;;;;;;;;;;;;16.82;58.67;100642.81;2093852;28;19919;-46
2022/03/18 04:41:06;;;;;;;;;;;;;;;16.82;58.58;100640.06;2092258;28;20361;-46
2022/03/18 04:42:07;;;;;;;;;;;;;;;16.81;58.46;100641.94;2088926;28;19927;-47
2022/03/18 04:43:07;;;;;;;;;;;;;;;16.81;58.58;100638.34;2090705;28;19927;-45
2022/03/18 04:44:07;;;;;;;;;;;;;;;16.82;58.70;100640.06;2095563;28;19943;-46
2022/03/18 04:45:08;;;;;;;;;;;;;;;16.81;58.62;100638.34;2092067;28;20583;-46
2022/03/18 04:46:08;;;;;;;;;;;;;;;16.82;58.68;100637.34;2093883;28;19926;-46
2022/03/18 04:47:09;;;;;;;;;;;;;;;16.81;58.58;100638.34;2088005;28;20250;-45
2022/03/18 04:48:10;;;;;;;;;;;;;;;16.82;58.70;100642.81;2094474;28;19916;-47
2022/03/18 04:49:10;;;;;;;;;;;;;;;16.81;58.62;100638.34;2089162;28;19920;-46
2022/03/18 04:50:11;;;;;;;;;;;;;;;16.80;58.38;100642.91;2094363;28;19920;-45
2022/03/18 04:51:11;;;;;;;;;;;;;;;16.81;58.64;100644.66;2093198;28;19920;-46
2022/03/18 04:52:12;;;;;;;;;;;;;;;16.80;58.72;100642.91;2084039;28;20421;-46
2022/03/18 04:53:12;;;;;;;;;;;;;;;16.81;58.66;100638.34;2083519;28;19921;-45
2022/03/18 04:54:12;;;;;;;;;;;;;;;16.80;58.43;100642.91;2093364;28;20100;-47
2022/03/18 04:55:13;;;;;;;;;;;;;;;16.80;58.60;100634.75;2090621;28;19931;-46
2022/03/18 04:57:32;;;;;;;;;;;;;;;16.80;58.84;100642.03;2091160;28;19920;-46
2022/03/18 04:58:32;;;;;;;;;;;;;;;16.81;58.80;100643.81;2088856;28;19920;-45
2022/03/18 04:59:33;;;;;;;;;;;;;;;16.80;58.67;100642.03;2092277;28;20246;-45
2022/03/18 05:00:35;;;;;;;;;;;;;;;16.81;58.79;100643.81;2091545;28;20247;-47
2022/03/18 05:01:36;;;;;;;;;;;;;;;16.82;58.62;100650.97;2087840;28;19924;-46
2022/03/18 05:02:36;;;;;;;;;;;;;;;16.81;58.49;100643.81;2099850;28;19955;-45
2022/03/18 05:03:37;;;;;;;;;;;;;;;16.80;58.63;100647.50;2092548;28;20337;-46
2022/03/18 05:04:37;;;;;;;;;;;;;;;16.81;58.62;100649.25;2097593;28;19919;-46
2022/03/18 05:05:38;;;;;;;;;;;;;;;16.80;58.58;100647.50;2085216;28;19920;-45
2022/03/18 05:06:39;;;;;;;;;;;;;;;16.80;58.54;100653.78;2087723;28;19920;-45
2022/03/18 05:07:40;;;;;;;;;;;;;;;16.80;58.50;100645.63;2087752;28;19942;-47
2022/03/18 05:08:40;;;;;;;;;;;;;;;16.80;58.55;100648.34;2084985;28;19916;-46
2022/03/18 05:09:40;;;;;;;;;;;;;;;16.80;58.81;100648.34;2095972;28;19928;-45
2022/03/18 05:10:41;;;;;;;;;;;;;;;16.80;58.53;100648.34;2084665;28;20533;-46
2022/03/18 05:11:41;;;;;;;;;;;;;;;16.80;58.59;100650.22;2093834;28;19931;-46
2022/03/18 05:12:42;;;;;;;;;;;;;;;16.79;58.53;100646.63;2091309;28;20076;-45
2022/03/18 05:13:42;;;;;;;;;;;;;;;16.79;58.63;100646.63;2089771;28;20679;-45
2022/03/18 05:14:42;;;;;;;;;;;;;;;16.80;58.66;100655.66;2087511;28;20308;-46
2022/03/18 05:15:43;;;;;;;;;;;;;;;16.79;58.69;100656.66;2086087;28;19944;-47
2022/03/18 05:16:43;;;;;;;;;;;;;;;16.78;58.45;100655.81;2087797;28;19920;-46
2022/03/18 05:17:48;;;;;;;;;;;;;;;16.79;58.75;100648.50;2090022;28;19920;-46
2022/03/18 05:18:48;;;;;;;;;;;;;;;16.79;58.68;100657.53;2092256;28;19925;-46
2022/03/18 05:19:49;;;;;;;;;;;;;;;16.79;58.67;100651.22;2090081;28;19958;-46
2022/03/18 05:20:49;;;;;;;;;;;;;;;16.79;58.68;100651.22;2092178;28;19920;-45
2022/03/18 05:21:49;;;;;;;;;;;;;;;16.78;58.70;100646.72;2090189;28;19920;-46